Time;durP1;ratioP1;P1;durP2;ratioP2;P2;SDS_P1;SDS_P2;PMS_P1;PMS_P2;Temp;Humidity;BMP_temperature;BMP_pressure;BME280_temperature;BME280_humidity;BME280_pressure;Samples;Min_cycle;Max_cycle;Signal;HPM_P1;HPM_P2
2022/09/24 00:02:30;;;;;;;4.17;3.80;;;;;;;;;;5046353;28;20206;-66
2022/09/24 00:05:00;;;;;;;3.90;3.53;;;;;;;;;;5050637;28;20285;-66
2022/09/24 00:07:32;;;;;;;4.80;3.87;;;;;;;;;;5038403;28;20261;-66
2022/09/24 00:10:02;;;;;;;3.93;3.63;;;;;;;;;;5037601;28;20689;-66
2022/09/24 00:12:31;;;;;;;3.50;3.20;;;;;;;;;;5046255;28;20279;-66
2022/09/24 00:15:02;;;;;;;3.87;3.57;;;;;;;;;;5046221;28;20209;-66
2022/09/24 00:17:35;;;;;;;3.80;3.50;;;;;;;;;;5045064;28;20259;-66
2022/09/24 00:20:05;;;;;;;4.20;3.80;;;;;;;;;;5061997;28;20254;-67
2022/09/24 00:22:38;;;;;;;3.50;3.20;;;;;;;;;;5044497;28;20206;-66
2022/09/24 00:28:02;;;;;;;4.13;3.77;;;;;;;;;;5040619;28;20198;-66
2022/09/24 00:30:32;;;;;;;3.97;3.67;;;;;;;;;;5043922;28;20194;-66
2022/09/24 00:33:02;;;;;;;3.67;3.37;;;;;;;;;;5054223;28;20293;-66
2022/09/24 00:35:36;;;;;;;4.00;3.60;;;;;;;;;;5036953;28;20211;-66
2022/09/24 00:38:05;;;;;;;4.10;3.70;;;;;;;;;;5063197;28;20967;-66
2022/09/24 00:40:38;;;;;;;4.13;3.83;;;;;;;;;;5049717;28;20186;-66
2022/09/24 00:43:30;;;;;;;4.07;3.67;;;;;;;;;;5053904;28;20194;-66
2022/09/24 00:46:26;;;;;;;4.17;3.77;;;;;;;;;;5047105;28;20226;-66
2022/09/24 00:49:03;;;;;;;3.87;3.57;;;;;;;;;;5053763;28;20293;-66
2022/09/24 00:51:35;;;;;;;4.20;3.80;;;;;;;;;;5019136;28;20190;-66
2022/09/24 00:54:34;;;;;;;4.07;3.77;;;;;;;;;;5051851;28;20186;-66
2022/09/24 00:57:06;;;;;;;4.27;3.70;;;;;;;;;;5056215;28;20614;-67
2022/09/24 00:59:39;;;;;;;4.47;4.07;;;;;;;;;;5027915;28;20206;-67
2022/09/24 01:02:14;;;;;;;5.03;3.87;;;;;;;;;;5040409;28;20196;-66
2022/09/24 01:04:44;;;;;;;4.40;3.77;;;;;;;;;;5049462;28;20214;-66
2022/09/24 01:07:14;;;;;;;4.20;3.80;;;;;;;;;;5052370;28;20192;-66
2022/09/24 01:09:46;;;;;;;4.40;4.00;;;;;;;;;;5046607;28;20225;-67
2022/09/24 01:12:18;;;;;;;4.07;3.67;;;;;;;;;;5048993;28;20226;-66
2022/09/24 01:15:07;;;;;;;4.03;3.63;;;;;;;;;;5049315;28;20202;-67
2022/09/24 01:17:40;;;;;;;4.20;3.80;;;;;;;;;;5047637;28;20273;-66
2022/09/24 01:20:30;;;;;;;4.13;3.73;;;;;;;;;;5048705;28;20191;-67
2022/09/24 01:23:17;;;;;;;4.27;3.87;;;;;;;;;;5047334;28;20855;-67
2022/09/24 01:26:04;;;;;;;3.80;3.50;;;;;;;;;;5039962;28;20198;-66
2022/09/24 01:28:43;;;;;;;4.50;4.10;;;;;;;;;;5048291;28;20633;-66
2022/09/24 01:31:18;;;;;;;4.23;3.83;;;;;;;;;;5049811;28;20194;-67
2022/09/24 01:33:52;;;;;;;3.73;3.40;;;;;;;;;;5046894;28;20250;-67
2022/09/24 01:36:28;;;;;;;4.43;4.03;;;;;;;;;;5046587;28;20263;-67
2022/09/24 01:39:00;;;;;;;4.30;3.90;;;;;;;;;;5052469;28;20202;-66
2022/09/24 01:41:33;;;;;;;4.30;3.90;;;;;;;;;;5045843;28;20257;-66
2022/09/24 01:44:08;;;;;;;4.20;3.80;;;;;;;;;;5047925;28;20240;-66
2022/09/24 01:46:46;;;;;;;4.03;3.57;;;;;;;;;;5049451;28;20206;-66
2022/09/24 01:49:15;;;;;;;4.43;4.03;;;;;;;;;;5045859;28;20684;-67
2022/09/24 01:51:52;;;;;;;4.23;3.83;;;;;;;;;;5048236;28;20191;-67
2022/09/24 01:54:35;;;;;;;3.77;3.47;;;;;;;;;;5048856;28;20192;-66
2022/09/24 01:57:40;;;;;;;4.80;4.30;;;;;;;;;;5050082;28;20209;-67
2022/09/24 02:00:13;;;;;;;4.93;4.37;;;;;;;;;;5000187;28;20207;-66
2022/09/24 02:02:54;;;;;;;4.20;3.87;;;;;;;;;;5031674;28;20187;-67
2022/09/24 02:05:45;;;;;;;4.10;3.80;;;;;;;;;;5028068;28;20197;-66
2022/09/24 02:08:27;;;;;;;4.00;3.70;;;;;;;;;;5028630;28;20217;-66
2022/09/24 02:11:01;;;;;;;4.20;3.80;;;;;;;;;;5043418;28;20238;-66
2022/09/24 02:13:38;;;;;;;4.27;3.87;;;;;;;;;;5046603;28;20237;-66
2022/09/24 02:16:13;;;;;;;4.77;3.83;;;;;;;;;;5049855;28;20201;-66
2022/09/24 02:18:44;;;;;;;4.37;3.90;;;;;;;;;;5056489;28;20198;-66
2022/09/24 02:21:21;;;;;;;4.40;3.97;;;;;;;;;;5046936;28;20222;-66
2022/09/24 02:23:59;;;;;;;4.50;4.10;;;;;;;;;;5031649;28;20784;-67
2022/09/24 02:26:29;;;;;;;4.33;3.80;;;;;;;;;;5048751;28;20577;-66
2022/09/24 02:29:01;;;;;;;4.43;4.03;;;;;;;;;;5048198;28;20785;-65
2022/09/24 02:31:33;;;;;;;4.33;3.93;;;;;;;;;;5044811;28;20588;-66
2022/09/24 02:34:22;;;;;;;4.07;3.67;;;;;;;;;;5043940;28;20240;-65
2022/09/24 02:37:04;;;;;;;4.60;4.10;;;;;;;;;;5051354;28;20208;-65
2022/09/24 02:39:35;;;;;;;4.17;3.77;;;;;;;;;;5047032;28;20279;-65
2022/09/24 02:42:12;;;;;;;4.53;4.13;;;;;;;;;;5048813;28;20204;-66
2022/09/24 02:44:46;;;;;;;4.40;4.10;;;;;;;;;;5050393;28;20196;-65
2022/09/24 02:47:30;;;;;;;4.40;4.03;;;;;;;;;;5048448;28;20609;-67
2022/09/24 02:50:02;;;;;;;4.87;4.43;;;;;;;;;;5047704;28;20206;-66
2022/09/24 02:52:34;;;;;;;4.27;3.83;;;;;;;;;;5047224;28;20206;-65
2022/09/24 02:55:04;;;;;;;4.60;3.80;;;;;;;;;;5047460;28;20289;-65
2022/09/24 02:57:33;;;;;;;4.60;4.20;;;;;;;;;;5040358;28;20299;-66
2022/09/24 03:00:02;;;;;;;4.60;4.20;;;;;;;;;;5050392;28;20202;-66
2022/09/24 03:02:35;;;;;;;5.37;4.27;;;;;;;;;;5049270;28;20260;-66
2022/09/24 03:05:06;;;;;;;4.40;4.00;;;;;;;;;;5046172;28;20225;-66
2022/09/24 03:07:33;;;;;;;4.60;4.20;;;;;;;;;;5060575;28;20596;-66
2022/09/24 03:10:06;;;;;;;5.27;4.50;;;;;;;;;;5045141;28;20648;-66
2022/09/24 03:12:34;;;;;;;4.27;3.90;;;;;;;;;;5047273;28;20234;-66
2022/09/24 03:15:03;;;;;;;5.07;4.60;;;;;;;;;;5047975;28;20215;-66
2022/09/24 03:17:34;;;;;;;4.87;4.47;;;;;;;;;;5046724;28;20193;-66
2022/09/24 03:20:09;;;;;;;4.47;4.07;;;;;;;;;;5047329;28;20191;-66
2022/09/24 03:22:41;;;;;;;5.13;4.63;;;;;;;;;;5045506;28;20602;-66
2022/09/24 03:25:12;;;;;;;4.60;4.20;;;;;;;;;;5046108;28;20256;-66
2022/09/24 03:27:42;;;;;;;4.60;4.20;;;;;;;;;;5061736;28;20248;-66
2022/09/24 03:33:03;;;;;;;4.97;4.57;;;;;;;;;;5046398;28;20198;-66
2022/09/24 03:35:35;;;;;;;4.50;4.10;;;;;;;;;;5024272;28;20226;-65
2022/09/24 03:38:05;;;;;;;4.57;4.17;;;;;;;;;;5042643;28;20206;-66
2022/09/24 03:40:34;;;;;;;4.20;3.80;;;;;;;;;;5044440;28;20212;-66
2022/09/24 03:43:05;;;;;;;4.80;4.40;;;;;;;;;;5044244;28;20199;-66
2022/09/24 03:45:37;;;;;;;4.57;4.17;;;;;;;;;;5045047;28;20197;-66
2022/09/24 03:48:06;;;;;;;4.90;4.50;;;;;;;;;;5046967;28;20260;-66
2022/09/24 03:50:38;;;;;;;4.67;4.23;;;;;;;;;;5061835;28;20206;-66
2022/09/24 03:53:08;;;;;;;4.70;4.30;;;;;;;;;;5047615;28;20215;-66
2022/09/24 03:55:41;;;;;;;5.20;4.70;;;;;;;;;;5011683;28;20229;-66
2022/09/24 03:58:17;;;;;;;4.60;4.17;;;;;;;;;;5059720;28;20681;-66
2022/09/24 04:00:49;;;;;;;5.60;4.60;;;;;;;;;;5043816;28;20238;-67
2022/09/24 04:03:18;;;;;;;4.57;4.07;;;;;;;;;;5044843;28;20798;-66
2022/09/24 04:05:50;;;;;;;4.63;4.23;;;;;;;;;;5045800;28;20552;-66
2022/09/24 04:08:19;;;;;;;4.80;4.40;;;;;;;;;;5046050;28;20690;-66
2022/09/24 04:10:49;;;;;;;4.50;4.10;;;;;;;;;;5043730;28;20222;-66
2022/09/24 04:13:21;;;;;;;4.63;4.23;;;;;;;;;;5059211;28;20206;-66
2022/09/24 04:16:01;;;;;;;4.97;4.47;;;;;;;;;;5035420;28;20190;-66
2022/09/24 04:18:33;;;;;;;4.00;3.70;;;;;;;;;;5061437;28;20194;-66
2022/09/24 04:21:05;;;;;;;4.60;4.20;;;;;;;;;;5047271;28;20506;-66
2022/09/24 04:23:37;;;;;;;4.60;4.20;;;;;;;;;;5043961;28;20202;-66
2022/09/24 04:26:09;;;;;;;4.73;4.30;;;;;;;;;;5047301;28;20247;-66
2022/09/24 04:28:43;;;;;;;5.17;4.67;;;;;;;;;;5050408;28;20223;-66
2022/09/24 04:31:13;;;;;;;4.80;4.40;;;;;;;;;;5043750;28;20199;-65
2022/09/24 04:33:46;;;;;;;4.77;4.17;;;;;;;;;;5055910;28;20351;-65
2022/09/24 04:36:16;;;;;;;4.37;4.00;;;;;;;;;;5056936;28;20195;-65
2022/09/24 04:38:47;;;;;;;6.60;4.67;;;;;;;;;;5053529;28;20276;-65
2022/09/24 04:41:19;;;;;;;4.77;4.20;;;;;;;;;;5043770;28;20201;-65
2022/09/24 04:43:50;;;;;;;4.43;4.03;;;;;;;;;;5047327;28;20245;-65
2022/09/24 04:46:22;;;;;;;4.70;4.30;;;;;;;;;;5044231;28;20264;-65
2022/09/24 04:48:52;;;;;;;5.03;4.13;;;;;;;;;;5047112;28;20206;-65
2022/09/24 04:51:21;;;;;;;4.80;4.40;;;;;;;;;;5044196;28;20198;-65
2022/09/24 04:53:53;;;;;;;4.47;4.07;;;;;;;;;;5046809;28;20222;-66
2022/09/24 04:56:23;;;;;;;4.60;4.20;;;;;;;;;;5046518;28;20305;-66
2022/09/24 04:58:53;;;;;;;4.87;4.37;;;;;;;;;;5060947;28;20214;-67
2022/09/24 05:01:22;;;;;;;5.10;4.40;;;;;;;;;;5044393;28;20202;-66
2022/09/24 05:03:52;;;;;;;4.67;4.27;;;;;;;;;;5057391;28;20216;-66
2022/09/24 05:06:24;;;;;;;4.50;4.10;;;;;;;;;;5045030;28;20202;-66
2022/09/24 05:08:53;;;;;;;4.50;4.10;;;;;;;;;;5045892;28;20207;-66
2022/09/24 05:11:35;;;;;;;4.93;4.53;;;;;;;;;;5049908;28;20326;-66
2022/09/24 05:14:07;;;;;;;4.77;4.23;;;;;;;;;;5043954;28;20210;-67
2022/09/24 05:16:36;;;;;;;5.00;4.50;;;;;;;;;;5062385;28;20194;-66
2022/09/24 05:19:07;;;;;;;4.50;4.10;;;;;;;;;;5043342;28;20536;-66
2022/09/24 05:21:40;;;;;;;4.63;4.23;;;;;;;;;;5046930;28;20229;-66
2022/09/24 05:24:13;;;;;;;4.30;4.00;;;;;;;;;;5050342;28;20193;-66
2022/09/24 05:29:32;;;;;;;4.70;4.30;;;;;;;;;;5033036;28;20199;-66
2022/09/24 05:32:07;;;;;;;4.63;4.23;;;;;;;;;;5037708;28;20190;-66
2022/09/24 05:34:40;;;;;;;4.57;4.17;;;;;;;;;;5046600;28;20686;-66
2022/09/24 05:37:15;;;;;;;5.00;4.50;;;;;;;;;;5037373;28;20190;-66
2022/09/24 05:39:47;;;;;;;4.43;4.03;;;;;;;;;;5049681;28;20205;-66
2022/09/24 05:42:19;;;;;;;4.67;4.20;;;;;;;;;;5053795;28;20198;-66
2022/09/24 05:44:48;;;;;;;4.30;4.00;;;;;;;;;;5049252;28;20650;-66
2022/09/24 05:47:21;;;;;;;4.63;4.23;;;;;;;;;;5044822;28;20206;-66
2022/09/24 05:49:54;;;;;;;4.30;3.90;;;;;;;;;;5048054;28;20194;-66
2022/09/24 05:52:26;;;;;;;4.63;4.23;;;;;;;;;;5049794;28;20552;-66
2022/09/24 05:54:58;;;;;;;4.67;4.27;;;;;;;;;;5049844;28;20628;-66
2022/09/24 05:57:26;;;;;;;5.00;4.50;;;;;;;;;;5044197;28;20195;-66
2022/09/24 05:59:57;;;;;;;4.30;3.90;;;;;;;;;;5039045;28;20203;-66
2022/09/24 06:02:29;;;;;;;4.03;3.70;;;;;;;;;;5047230;28;20194;-66
2022/09/24 06:05:00;;;;;;;4.63;4.23;;;;;;;;;;5049670;28;20194;-66
2022/09/24 06:07:34;;;;;;;5.90;4.13;;;;;;;;;;5040304;28;20205;-66
2022/09/24 06:10:06;;;;;;;4.50;4.10;;;;;;;;;;5046137;28;20234;-66
2022/09/24 06:12:36;;;;;;;4.73;4.27;;;;;;;;;;5058955;28;20567;-66
2022/09/24 06:15:13;;;;;;;4.60;4.10;;;;;;;;;;5042173;28;20238;-66
2022/09/24 06:17:44;;;;;;;4.37;3.97;;;;;;;;;;5042998;28;20183;-66
2022/09/24 06:20:12;;;;;;;4.07;3.67;;;;;;;;;;5050981;28;20263;-66
2022/09/24 06:22:42;;;;;;;4.63;4.00;;;;;;;;;;5040981;28;20202;-65
2022/09/24 06:25:09;;;;;;;5.73;4.60;;;;;;;;;;5036514;28;20508;-65
2022/09/24 06:27:36;;;;;;;4.80;4.30;;;;;;;;;;5041470;28;20208;-66
2022/09/24 06:30:04;;;;;;;4.90;4.40;;;;;;;;;;5043662;28;20682;-66
2022/09/24 06:32:31;;;;;;;5.27;4.77;;;;;;;;;;5044317;28;20209;-65
2022/09/24 06:34:58;;;;;;;5.03;4.27;;;;;;;;;;5073557;28;20244;-65
2022/09/24 06:37:25;;;;;;;4.87;4.30;;;;;;;;;;5042691;28;20209;-65
2022/09/24 06:39:52;;;;;;;5.10;4.60;;;;;;;;;;5046162;28;20308;-65
2022/09/24 06:42:19;;;;;;;5.47;4.30;;;;;;;;;;5047796;28;20522;-65
2022/09/24 06:44:47;;;;;;;7.07;4.93;;;;;;;;;;5045885;28;20629;-65
2022/09/24 06:47:14;;;;;;;6.10;4.80;;;;;;;;;;5039997;28;20210;-65
2022/09/24 06:49:41;;;;;;;4.77;4.27;;;;;;;;;;5044780;28;20224;-65
2022/09/24 06:52:08;;;;;;;7.70;4.53;;;;;;;;;;5044952;28;20205;-65
2022/09/24 06:54:35;;;;;;;4.90;4.50;;;;;;;;;;5046833;28;20209;-65
2022/09/24 06:57:05;;;;;;;5.27;4.77;;;;;;;;;;5044667;28;20259;-65
2022/09/24 06:59:32;;;;;;;5.00;4.50;;;;;;;;;;5035313;28;20214;-65
2022/09/24 07:01:59;;;;;;;5.00;4.50;;;;;;;;;;5045538;28;20193;-66
2022/09/24 07:04:27;;;;;;;4.90;4.50;;;;;;;;;;5047432;28;20194;-65
2022/09/24 07:09:40;;;;;;;5.50;4.90;;;;;;;;;;5041395;28;20222;-65
2022/09/24 07:12:07;;;;;;;5.50;4.60;;;;;;;;;;5045718;28;20269;-65
2022/09/24 07:14:34;;;;;;;4.97;4.40;;;;;;;;;;5046057;28;20263;-66
2022/09/24 07:17:02;;;;;;;5.77;5.13;;;;;;;;;;5044485;28;20194;-65
2022/09/24 07:19:29;;;;;;;5.50;4.87;;;;;;;;;;5043382;28;20205;-65
2022/09/24 07:21:56;;;;;;;5.43;4.87;;;;;;;;;;5043145;28;20216;-65
2022/09/24 07:24:23;;;;;;;5.93;4.83;;;;;;;;;;5045624;28;20205;-65
2022/09/24 07:26:51;;;;;;;5.23;4.67;;;;;;;;;;5022995;28;20202;-65
2022/09/24 07:29:18;;;;;;;5.13;4.63;;;;;;;;;;5042611;28;20194;-66
2022/09/24 07:31:45;;;;;;;6.10;5.30;;;;;;;;;;5043727;28;20205;-65
2022/09/24 07:34:13;;;;;;;5.90;4.70;;;;;;;;;;5044351;28;20296;-65
2022/09/24 07:36:40;;;;;;;5.53;4.93;;;;;;;;;;5044334;28;20214;-65
2022/09/24 07:39:08;;;;;;;4.70;4.30;;;;;;;;;;5028001;28;20566;-65
2022/09/24 07:41:35;;;;;;;5.80;4.63;;;;;;;;;;5042295;28;20241;-65
2022/09/24 07:44:08;;;;;;;5.10;4.60;;;;;;;;;;5044252;28;20194;-65
2022/09/24 07:46:35;;;;;;;4.57;4.17;;;;;;;;;;5057162;28;20271;-65
2022/09/24 07:49:03;;;;;;;4.20;3.80;;;;;;;;;;5042592;28;20585;-65
2022/09/24 07:51:30;;;;;;;6.17;4.40;;;;;;;;;;5046085;28;20331;-66
2022/09/24 07:53:57;;;;;;;4.60;4.20;;;;;;;;;;5045633;28;20210;-65
2022/09/24 07:56:25;;;;;;;5.40;4.30;;;;;;;;;;5041739;28;20225;-65
2022/09/24 07:58:52;;;;;;;7.43;4.47;;;;;;;;;;5041145;28;20220;-65
2022/09/24 08:01:20;;;;;;;4.73;4.30;;;;;;;;;;5039811;28;20185;-66
2022/09/24 08:03:47;;;;;;;5.10;4.60;;;;;;;;;;5041915;28;20205;-63
2022/09/24 08:06:14;;;;;;;5.63;4.60;;;;;;;;;;5040935;28;20646;-64
2022/09/24 08:08:42;;;;;;;7.67;4.63;;;;;;;;;;5043747;28;20214;-64
2022/09/24 08:11:12;;;;;;;28.50;6.10;;;;;;;;;;5038569;28;20700;-62
2022/09/24 08:13:39;;;;;;;20.00;5.23;;;;;;;;;;5051986;28;20241;-65
2022/09/24 08:16:06;;;;;;;20.63;5.60;;;;;;;;;;5046421;28;20190;-65
2022/09/24 08:18:33;;;;;;;18.53;5.00;;;;;;;;;;5043338;28;20202;-65
2022/09/24 08:21:05;;;;;;;13.37;4.77;;;;;;;;;;5055186;28;20932;-65
2022/09/24 08:23:33;;;;;;;21.00;4.57;;;;;;;;;;5038297;28;20968;-65
2022/09/24 08:26:00;;;;;;;10.63;4.60;;;;;;;;;;5044936;28;20205;-65
2022/09/24 08:28:28;;;;;;;15.40;4.40;;;;;;;;;;5041881;28;20531;-64
2022/09/24 08:30:59;;;;;;;14.03;5.10;;;;;;;;;;5045746;28;20198;-65
2022/09/24 08:33:27;;;;;;;6.87;4.53;;;;;;;;;;5037489;28;20199;-64
2022/09/24 08:35:54;;;;;;;15.37;5.50;;;;;;;;;;5041500;28;20194;-65
2022/09/24 08:38:21;;;;;;;8.73;4.80;;;;;;;;;;5036862;28;20198;-64
2022/09/24 08:41:00;;;;;;;8.50;4.67;;;;;;;;;;5041802;28;20222;-64
2022/09/24 08:43:44;;;;;;;12.13;4.90;;;;;;;;;;5051297;28;20193;-65
2022/09/24 08:49:20;;;;;;;7.83;4.67;;;;;;;;;;5036924;28;20742;-64
2022/09/24 08:51:59;;;;;;;15.13;5.40;;;;;;;;;;5042059;28;20211;-64
2022/09/24 08:54:27;;;;;;;73.63;8.93;;;;;;;;;;5040917;28;20226;-65
2022/09/24 08:56:56;;;;;;;92.77;10.63;;;;;;;;;;5045703;28;20214;-65
2022/09/24 08:59:29;;;;;;;114.30;12.77;;;;;;;;;;5040487;28;20619;-67
2022/09/24 09:02:19;;;;;;;120.70;13.97;;;;;;;;;;5039127;28;20195;-68
2022/09/24 09:05:18;;;;;;;112.63;14.03;;;;;;;;;;5034000;28;20211;-66
2022/09/24 09:07:52;;;;;;;88.40;12.77;;;;;;;;;;4967689;28;20279;-66
2022/09/24 09:10:27;;;;;;;87.57;13.87;;;;;;;;;;5054220;28;20202;-65
2022/09/24 09:12:56;;;;;;;67.23;11.73;;;;;;;;;;5046946;28;20310;-66
2022/09/24 09:15:28;;;;;;;85.43;12.43;;;;;;;;;;5034038;28;20853;-66
2022/09/24 09:18:00;;;;;;;59.37;9.50;;;;;;;;;;5048659;28;20218;-64
2022/09/24 09:20:27;;;;;;;70.23;10.43;;;;;;;;;;5048259;28;20220;-66
2022/09/24 09:22:55;;;;;;;42.63;9.33;;;;;;;;;;5048027;28;20202;-67
2022/09/24 09:25:24;;;;;;;78.30;10.77;;;;;;;;;;5043617;28;20203;-65
2022/09/24 09:27:55;;;;;;;49.43;10.63;;;;;;;;;;5045062;28;20246;-66
2022/09/24 09:30:22;;;;;;;53.73;8.97;;;;;;;;;;5044842;28;20222;-66
2022/09/24 09:32:52;;;;;;;55.23;9.27;;;;;;;;;;5048265;28;20630;-67
2022/09/24 09:35:42;;;;;;;111.53;14.10;;;;;;;;;;5031776;28;20243;-66
2022/09/24 09:38:19;;;;;;;82.87;11.87;;;;;;;;;;5040749;28;20215;-66
2022/09/24 09:40:52;;;;;;;62.80;11.77;;;;;;;;;;5058741;28;20233;-65
2022/09/24 09:43:20;;;;;;;62.97;10.83;;;;;;;;;;5046631;28;20576;-64
2022/09/24 09:45:55;;;;;;;49.00;8.83;;;;;;;;;;5033352;28;20275;-64
2022/09/24 09:48:25;;;;;;;58.90;9.03;;;;;;;;;;5043455;28;20201;-66
2022/09/24 09:50:55;;;;;;;35.57;8.80;;;;;;;;;;5046018;28;20245;-64
2022/09/24 09:53:23;;;;;;;39.43;9.03;;;;;;;;;;5036689;28;20761;-64
2022/09/24 09:55:55;;;;;;;32.47;8.20;;;;;;;;;;5044493;28;20648;-64
2022/09/24 09:58:23;;;;;;;33.57;8.33;;;;;;;;;;5041607;28;20222;-66
2022/09/24 10:00:51;;;;;;;32.47;8.23;;;;;;;;;;5037615;28;20239;-66
2022/09/24 10:03:23;;;;;;;28.73;9.13;;;;;;;;;;5043837;28;20194;-66
2022/09/24 10:05:58;;;;;;;62.27;10.97;;;;;;;;;;5045421;28;20199;-65
2022/09/24 10:08:25;;;;;;;73.00;11.40;;;;;;;;;;5046105;28;20199;-65
2022/09/24 10:10:56;;;;;;;55.67;9.40;;;;;;;;;;5038226;28;20303;-66
2022/09/24 10:13:24;;;;;;;41.30;8.47;;;;;;;;;;5042954;28;20644;-65
2022/09/24 10:15:53;;;;;;;34.93;8.90;;;;;;;;;;5056805;28;20210;-65
2022/09/24 10:18:27;;;;;;;29.67;7.57;;;;;;;;;;5041981;28;20191;-65
2022/09/24 10:21:01;;;;;;;35.60;7.97;;;;;;;;;;5044598;28;20295;-65
2022/09/24 10:23:33;;;;;;;31.87;8.27;;;;;;;;;;5036178;28;20198;-65
2022/09/24 10:26:01;;;;;;;34.23;8.10;;;;;;;;;;5045624;28;20197;-65
2022/09/24 10:31:21;;;;;;;26.23;7.50;;;;;;;;;;5038418;28;20197;-62
2022/09/24 10:33:49;;;;;;;31.77;7.80;;;;;;;;;;5033967;28;20227;-63
2022/09/24 10:36:18;;;;;;;25.00;7.50;;;;;;;;;;5037782;28;20211;-64
2022/09/24 10:38:45;;;;;;;22.30;7.00;;;;;;;;;;5036783;28;20213;-63
2022/09/24 10:41:26;;;;;;;26.90;7.23;;;;;;;;;;5042810;28;20203;-63
2022/09/24 10:43:54;;;;;;;20.93;6.20;;;;;;;;;;5046208;28;20202;-63
2022/09/24 10:46:24;;;;;;;18.80;6.40;;;;;;;;;;5056793;28;20191;-63
2022/09/24 10:48:52;;;;;;;16.90;6.70;;;;;;;;;;5045968;28;20213;-63
2022/09/24 10:51:38;;;;;;;18.67;6.30;;;;;;;;;;5026690;28;20194;-63
2022/09/24 10:54:25;;;;;;;16.03;6.47;;;;;;;;;;5044764;28;20498;-64
2022/09/24 10:56:54;;;;;;;11.17;5.90;;;;;;;;;;5043678;28;20647;-64
2022/09/24 10:59:38;;;;;;;15.23;5.87;;;;;;;;;;5041299;28;20210;-64
2022/09/24 11:02:11;;;;;;;10.30;5.70;;;;;;;;;;5044532;28;20260;-64
2022/09/24 11:04:46;;;;;;;16.57;6.00;;;;;;;;;;5035857;28;20191;-64
2022/09/24 11:07:16;;;;;;;9.27;5.27;;;;;;;;;;5039229;28;20297;-65
2022/09/24 11:09:54;;;;;;;14.33;5.90;;;;;;;;;;5041214;28;20210;-64
2022/09/24 11:12:29;;;;;;;18.57;6.57;;;;;;;;;;5038729;28;20230;-66
2022/09/24 11:14:58;;;;;;;26.00;6.73;;;;;;;;;;5039960;28;20226;-65
2022/09/24 11:17:32;;;;;;;17.80;6.10;;;;;;;;;;5041565;28;20198;-65
2022/09/24 11:20:00;;;;;;;29.27;7.60;;;;;;;;;;5042203;28;20365;-64
2022/09/24 11:22:46;;;;;;;53.60;8.47;;;;;;;;;;5033563;28;20547;-65
2022/09/24 11:25:25;;;;;;;85.13;10.93;;;;;;;;;;5035855;28;20197;-63
2022/09/24 11:28:11;;;;;;;51.20;9.50;;;;;;;;;;5036886;28;20744;-64
2022/09/24 11:30:57;;;;;;;40.40;8.37;;;;;;;;;;5045944;28;20195;-63
2022/09/24 11:33:36;;;;;;;44.63;8.37;;;;;;;;;;5027201;28;20214;-64
2022/09/24 11:36:13;;;;;;;64.27;9.50;;;;;;;;;;5044908;28;20220;-65
2022/09/24 11:38:53;;;;;;;62.20;10.10;;;;;;;;;;5057765;28;20197;-65
2022/09/24 11:41:39;;;;;;;43.47;8.93;;;;;;;;;;5038860;28;20191;-66
2022/09/24 11:44:17;;;;;;;60.40;11.67;;;;;;;;;;5044878;28;20190;-64
2022/09/24 11:46:55;;;;;;;68.80;10.73;;;;;;;;;;5038734;28;20209;-63
2022/09/24 11:49:25;;;;;;;88.27;12.23;;;;;;;;;;5038378;28;20202;-65
2022/09/24 11:52:28;;;;;;;96.23;14.10;;;;;;;;;;5046370;28;20252;-65
2022/09/24 11:55:09;;;;;;;96.37;12.90;;;;;;;;;;4987017;28;20215;-66
2022/09/24 11:57:39;;;;;;;114.00;15.43;;;;;;;;;;5036727;28;20768;-66
2022/09/24 12:00:12;;;;;;;150.73;21.53;;;;;;;;;;5044031;28;20206;-65
2022/09/24 12:02:46;;;;;;;108.73;16.83;;;;;;;;;;5046386;28;20256;-66
2022/09/24 12:05:35;;;;;;;94.57;16.47;;;;;;;;;;5044142;28;20652;-65
2022/09/24 12:08:14;;;;;;;104.07;15.77;;;;;;;;;;5039340;28;20204;-65
2022/09/24 12:10:45;;;;;;;102.87;15.80;;;;;;;;;;5033775;28;20213;-65
2022/09/24 12:13:16;;;;;;;99.47;15.63;;;;;;;;;;5044046;28;20209;-65
2022/09/24 12:15:46;;;;;;;103.63;14.07;;;;;;;;;;5044105;28;20241;-66
2022/09/24 12:18:23;;;;;;;72.37;13.13;;;;;;;;;;5046434;28;20292;-68
2022/09/24 12:21:02;;;;;;;78.70;12.97;;;;;;;;;;5023779;28;20510;-65
2022/09/24 12:23:32;;;;;;;61.23;12.60;;;;;;;;;;5032207;28;20256;-66
2022/09/24 12:26:00;;;;;;;65.57;12.77;;;;;;;;;;5039338;28;20687;-66
2022/09/24 12:34:16;;;;;;;36.63;9.90;;;;;;;;;;5057227;28;20242;-71
2022/09/24 12:36:59;;;;;;;24.87;8.30;;;;;;;;;;5056111;28;20230;-67
2022/09/24 12:39:43;;;;;;;21.83;8.13;;;;;;;;;;5044705;28;20186;-68
2022/09/24 12:42:13;;;;;;;15.17;8.00;;;;;;;;;;5024299;28;20198;-64
2022/09/24 12:44:45;;;;;;;13.50;7.97;;;;;;;;;;5059362;28;20194;-62
2022/09/24 12:47:22;;;;;;;11.83;8.13;;;;;;;;;;5044575;28;20206;-60
2022/09/24 12:50:07;;;;;;;9.33;6.63;;;;;;;;;;5061563;28;20218;-61
2022/09/24 12:52:42;;;;;;;8.63;7.30;;;;;;;;;;5055572;28;20683;-61
2022/09/24 12:55:22;;;;;;;8.70;6.63;;;;;;;;;;5023198;28;20218;-63
2022/09/24 12:58:08;;;;;;;7.53;6.07;;;;;;;;;;5044688;28;20749;-63
2022/09/24 13:00:41;;;;;;;9.13;6.07;;;;;;;;;;5060785;28;20248;-63
2022/09/24 13:03:31;;;;;;;12.07;6.27;;;;;;;;;;5047752;28;20197;-68
2022/09/24 13:06:04;;;;;;;11.40;6.80;;;;;;;;;;5038387;28;20198;-66
2022/09/24 13:08:42;;;;;;;10.77;8.10;;;;;;;;;;5049635;28;20208;-66
2022/09/24 13:11:28;;;;;;;10.93;8.63;;;;;;;;;;5045737;28;20319;-66
2022/09/24 13:14:20;;;;;;;8.67;7.77;;;;;;;;;;5042618;28;20206;-67
2022/09/24 13:16:54;;;;;;;10.57;8.47;;;;;;;;;;5037414;28;20735;-66
2022/09/24 13:19:34;;;;;;;10.40;9.33;;;;;;;;;;5060926;28;20186;-67
2022/09/24 13:22:04;;;;;;;10.47;9.20;;;;;;;;;;5038504;28;20217;-66
2022/09/24 13:24:56;;;;;;;13.93;8.83;;;;;;;;;;5060535;28;20260;-67
2022/09/24 13:27:31;;;;;;;10.83;9.67;;;;;;;;;;5034063;28;20265;-66
2022/09/24 13:30:40;;;;;;;11.50;9.60;;;;;;;;;;5047347;28;20202;-66
2022/09/24 13:33:30;;;;;;;12.47;9.40;;;;;;;;;;5026709;28;20303;-66
2022/09/24 13:36:26;;;;;;;9.80;8.87;;;;;;;;;;5037172;28;20228;-66
2022/09/24 13:39:04;;;;;;;16.73;8.80;;;;;;;;;;5040595;28;20202;-69
2022/09/24 13:41:46;;;;;;;27.37;9.50;;;;;;;;;;5059559;28;20259;-68
2022/09/24 13:44:17;;;;;;;11.63;9.53;;;;;;;;;;5046468;28;20191;-68
2022/09/24 13:46:50;;;;;;;14.90;9.77;;;;;;;;;;5036891;28;20238;-68
2022/09/24 13:49:23;;;;;;;13.87;9.00;;;;;;;;;;5052079;28;20201;-68
2022/09/24 13:52:08;;;;;;;10.43;9.37;;;;;;;;;;5051619;28;20198;-69
2022/09/24 13:54:46;;;;;;;9.67;8.70;;;;;;;;;;5042201;28;20199;-69
2022/09/24 13:57:29;;;;;;;14.80;11.23;;;;;;;;;;5041880;28;20575;-69
2022/09/24 14:00:05;;;;;;;16.17;10.90;;;;;;;;;;5022811;28;20186;-68
2022/09/24 14:02:40;;;;;;;11.83;10.73;;;;;;;;;;5057226;28;20224;-69
2022/09/24 14:05:16;;;;;;;14.13;12.00;;;;;;;;;;5047969;28;20618;-69
2022/09/24 14:08:07;;;;;;;13.73;12.27;;;;;;;;;;5029449;28;20205;-68
2022/09/24 14:10:47;;;;;;;13.77;12.43;;;;;;;;;;5045283;28;20202;-68
2022/09/24 14:13:21;;;;;;;13.70;12.30;;;;;;;;;;5046983;28;20198;-68
2022/09/24 14:16:06;;;;;;;14.00;12.70;;;;;;;;;;5078071;28;20686;-68
2022/09/24 14:18:39;;;;;;;12.33;11.20;;;;;;;;;;5089113;28;20199;-68
2022/09/24 14:21:29;;;;;;;12.73;11.50;;;;;;;;;;5071496;28;20197;-68
2022/09/24 14:24:09;;;;;;;12.63;11.40;;;;;;;;;;5067129;28;20224;-67
2022/09/24 14:26:47;;;;;;;12.60;11.30;;;;;;;;;;5055389;28;20192;-68
2022/09/24 14:29:19;;;;;;;13.30;11.97;;;;;;;;;;5076044;28;20208;-67
2022/09/24 14:31:52;;;;;;;11.37;10.33;;;;;;;;;;5059350;28;20250;-68
2022/09/24 14:34:41;;;;;;;11.03;9.93;;;;;;;;;;5057376;28;20275;-67
2022/09/24 14:37:22;;;;;;;11.10;10.00;;;;;;;;;;5060882;28;20202;-67
2022/09/24 14:39:59;;;;;;;9.97;8.93;;;;;;;;;;5071357;28;20592;-68
2022/09/24 14:42:32;;;;;;;10.03;9.03;;;;;;;;;;5070291;28;20198;-66
2022/09/24 14:45:06;;;;;;;9.37;8.47;;;;;;;;;;5033930;28;20199;-66
2022/09/24 14:47:45;;;;;;;9.87;8.33;;;;;;;;;;5073098;28;20572;-67
2022/09/24 14:50:47;;;;;;;9.90;7.73;;;;;;;;;;5073491;28;20259;-67
2022/09/24 14:53:36;;;;;;;10.73;7.03;;;;;;;;;;5051068;28;20660;-68
2022/09/24 14:56:26;;;;;;;8.97;6.93;;;;;;;;;;5075297;28;20209;-68
2022/09/24 14:58:54;;;;;;;8.67;7.20;;;;;;;;;;5069746;28;20608;-68
2022/09/24 15:01:23;;;;;;;10.27;7.50;;;;;;;;;;5062052;28;20198;-68
2022/09/24 15:04:10;;;;;;;7.83;7.03;;;;;;;;;;5047712;28;20249;-68
2022/09/24 15:06:45;;;;;;;7.77;6.93;;;;;;;;;;5065647;28;20221;-67
2022/09/24 15:09:25;;;;;;;9.13;7.93;;;;;;;;;;5046649;28;20205;-67
2022/09/24 15:11:55;;;;;;;17.03;8.17;;;;;;;;;;5067950;28;20233;-69
2022/09/24 15:14:33;;;;;;;18.27;7.07;;;;;;;;;;5081393;28;20189;-67
2022/09/24 15:17:18;;;;;;;10.07;7.93;;;;;;;;;;5081139;28;20725;-68
2022/09/24 15:19:53;;;;;;;15.07;7.47;;;;;;;;;;5047529;28;20661;-69
2022/09/24 15:22:26;;;;;;;12.40;8.67;;;;;;;;;;5065698;28;20791;-69
2022/09/24 15:25:00;;;;;;;15.07;8.87;;;;;;;;;;5080333;28;20193;-69
2022/09/24 15:27:33;;;;;;;21.77;9.47;;;;;;;;;;5068364;28;20194;-71
2022/09/24 15:30:16;;;;;;;19.70;9.30;;;;;;;;;;5080630;28;20208;-71
2022/09/24 15:32:49;;;;;;;13.67;8.47;;;;;;;;;;5069549;28;20200;-70
2022/09/24 15:35:32;;;;;;;13.37;7.87;;;;;;;;;;5059249;28;20561;-70
2022/09/24 15:38:02;;;;;;;15.90;7.97;;;;;;;;;;5067573;28;20620;-71
2022/09/24 15:40:34;;;;;;;12.90;7.77;;;;;;;;;;5072123;28;20193;-71